MHLC

Golosón International Airport

Airport
ICAO code
MHLC
IATA Code
LCE
Summary
ICAO Region
CARSAM
ICAO Territory
Location

La Ceiba, Atlantida Department

Serving
La Ceiba
Elevation
39 ft
Coordinates
15° 44' 34" N , 86° 51' 7" W
KCC
Airport WX
Tropical Revolving Storm
Metar
Observation
MHLC 270500Z VRB02KT 4000 -RA FEW020 BKN070 22/22 Q1017 A3003 NOSIG
Station
La Ceiba Airport
Date/Time
2023-01-27 05:00:00
Wind speed
02 kts
Lowest cloud amount
few clouds
Temperature
22°C
Dew point
22°C
Humidity
100%
QNH
1017 hPa
Weather condition
n/a

Golosón International Airport (Spanish: Aeropuerto Internacional Golosón) is an airport located on the western side of the city of La Ceiba, in the Atlántida Department on the north coast of Honduras. It is also known as La Ceiba Airport and Hector C. Moncada Air Base.

Climatology

Tropical Savanna climate (Köppen climate classification Aw)

Runways

Designator Length Width Surface Rops
7/25 3010 45 ASP Yes/Yes

Airport map

Aerial View

SKYbrary Partners:

Safety knowledge contributed by: